This is the latest recevied weather packets stored in our database for station/object JF7BTK-10. If no packets are shown the sender has not sent any weather packets the latest 10 day(s).
| Time | Temp. | Humidity | Pressure | Rain* | Wind** | Luminosity | Snow |
|---|---|---|---|---|---|---|---|
| 1787977687 | 24.44° C | 59% | 1005.8 hPa | 0 mm | - | - | - |
| 1787976787 | 24.44° C | 59% | 1006.1 hPa | 0 mm | - | - | - |
| 1787976052 | 24.44° C | 60% | 1005.9 hPa | 0 mm | - | - | - |
| 1787975887 | 25° C | 60% | 1006.1 hPa | 0 mm | - | - | - |
| 1787974987 | 26.11° C | 54% | 1005.8 hPa | 0 mm | - | - | - |
| 1787974087 | 25° C | 58% | 1005.9 hPa | 0 mm | - | - | - |
| 1787973188 | 25.56° C | 60% | 1005.9 hPa | 0 mm | - | - | - |
| 1787972288 | 25° C | 61% | 1005.9 hPa | 0 mm | - | - | - |
| 1787971388 | 24.44° C | 61% | 1006 hPa | 0 mm | - | - | - |
| 1787970489 | 25° C | 61% | 1006 hPa | 0 mm | - | - | - |
| 1787969587 | 24.44° C | 60% | 1006.3 hPa | 0 mm | - | - | - |
| 1787968688 | 25° C | 56% | 1006.2 hPa | 0 mm | - | - | - |
| 1787967788 | 25° C | 60% | 1006.4 hPa | 0 mm | - | - | - |
| 1787966889 | 25.56° C | 58% | 1006.3 hPa | 0 mm | - | - | - |
| 1787965989 | 25° C | 56% | 1006.5 hPa | 0 mm | - | - | - |
| 1787965089 | 25° C | 60% | 1006.3 hPa | 0 mm | - | - | - |
| 1787964187 | 25.56° C | 58% | 1006.5 hPa | 0 mm | - | - | - |
| 1787963287 | 25.56° C | 60% | 1006.6 hPa | 0 mm | - | - | - |
| 1787962387 | 24.44° C | 61% | 1006.6 hPa | 0 mm | - | - | - |
| 1787961487 | 24.44° C | 61% | 1006.3 hPa | 0 mm | - | - | - |
| 1787960588 | 24.44° C | 61% | 1006.4 hPa | 0 mm | - | - | - |
| 1787959688 | 25° C | 63% | 1006.3 hPa | 0 mm | - | - | - |
| 1787958788 | 24.44° C | 69% | 1006.2 hPa | 0 mm | - | - | - |
| 1787957888 | 23.89° C | 72% | 1006.2 hPa | 0 mm | - | - | - |
| 1787957752 | 23.89° C | 72% | 1006.2 hPa | 0 mm | - | - | - |
* Rain latest hour (hover to see other rain measurements)
** Current wind speed in m/s (hover to see current wind gust speed)